createdAt,value
2023-01-09T00:00:53.249Z,8.75
2023-01-09T00:03:19.603Z,8.75
2023-01-09T00:05:46.198Z,8.80
2023-01-09T00:08:12.663Z,8.77
2023-01-09T00:10:39.070Z,8.73
2023-01-09T00:13:05.509Z,8.76
2023-01-09T00:15:31.976Z,8.84
2023-01-09T00:17:58.344Z,8.84
2023-01-09T00:20:24.849Z,8.79
2023-01-09T00:22:51.279Z,8.84
2023-01-09T00:25:17.721Z,8.86
2023-01-09T00:27:44.156Z,8.92
2023-01-09T00:30:11.402Z,8.88
2023-01-09T00:32:37.755Z,8.83
2023-01-09T00:35:04.573Z,8.82
2023-01-09T00:37:31.004Z,8.77
2023-01-09T00:39:57.351Z,8.76
2023-01-09T00:42:28.294Z,8.68
2023-01-09T00:44:59.463Z,8.58
2023-01-09T00:47:40.405Z,8.55
2023-01-09T00:50:30.576Z,8.64
2023-01-09T00:53:01.465Z,8.71
2023-01-09T00:55:28.097Z,8.64
2023-01-09T00:57:55.689Z,8.52
2023-01-09T01:00:22.465Z,8.47
2023-01-09T01:02:48.888Z,8.45
2023-01-09T01:05:34.075Z,8.41
2023-01-09T01:08:00.508Z,8.40
2023-01-09T01:10:27.760Z,8.39
2023-01-09T01:12:54.191Z,8.37
2023-01-09T01:15:20.960Z,8.44
2023-01-09T01:17:47.934Z,8.48
2023-01-09T01:20:18.715Z,8.56
2023-01-09T01:22:45.141Z,8.60
2023-01-09T01:25:14.237Z,8.59
2023-01-09T01:27:41.271Z,8.49
2023-01-09T01:30:09.635Z,8.50
2023-01-09T01:32:36.296Z,8.49
2023-01-09T01:35:02.864Z,8.55
2023-01-09T01:37:29.327Z,8.43
2023-01-09T01:39:55.818Z,8.41
2023-01-09T01:42:22.561Z,8.38
2023-01-09T01:45:07.717Z,8.40
2023-01-09T01:47:40.209Z,8.40
2023-01-09T01:50:22.743Z,8.47
2023-01-09T01:52:56.318Z,8.43
2023-01-09T01:55:23.324Z,8.45
2023-01-09T01:57:54.210Z,8.46
2023-01-09T02:00:27.141Z,8.42
2023-01-09T02:02:53.681Z,8.43
2023-01-09T02:05:20.245Z,8.48
2023-01-09T02:07:46.796Z,8.58
2023-01-09T02:10:13.228Z,8.61
2023-01-09T02:12:39.581Z,8.73
2023-01-09T02:15:10.660Z,8.80
2023-01-09T02:17:56.043Z,8.80
2023-01-09T02:20:32.557Z,8.84
2023-01-09T02:23:42.955Z,8.90
2023-01-09T02:26:35.281Z,9.01
2023-01-09T02:29:10.346Z,9.04
2023-01-09T02:31:43.694Z,9.05
2023-01-09T02:34:43.823Z,9.06
2023-01-09T02:37:39.839Z,9.10
2023-01-09T02:40:20.831Z,9.13
2023-01-09T02:42:48.386Z,9.16
2023-01-09T02:45:14.820Z,9.15
2023-01-09T02:47:46.378Z,9.15
2023-01-09T02:50:23.450Z,9.13
2023-01-09T02:53:11.281Z,9.17
2023-01-09T02:55:58.827Z,9.23
2023-01-09T02:59:07.229Z,9.23
2023-01-09T03:02:05.830Z,9.13
2023-01-09T03:04:53.682Z,9.03
2023-01-09T03:07:33.010Z,8.99
2023-01-09T03:10:08.585Z,9.11
2023-01-09T03:12:36.729Z,9.14
2023-01-09T03:15:07.081Z,9.15
2023-01-09T03:17:43.935Z,9.19
2023-01-09T03:20:13.516Z,9.10
2023-01-09T03:22:45.828Z,9.11
2023-01-09T03:25:13.088Z,9.15
2023-01-09T03:27:39.811Z,9.21
2023-01-09T03:30:06.803Z,9.18
2023-01-09T03:32:33.433Z,9.14
2023-01-09T03:35:01.762Z,9.22
2023-01-09T03:37:28.105Z,9.18
2023-01-09T03:39:54.603Z,9.19
2023-01-09T03:42:20.938Z,9.07
2023-01-09T03:44:47.491Z,9.12
2023-01-09T03:47:13.947Z,9.13
2023-01-09T03:49:40.543Z,9.22
2023-01-09T03:52:07.078Z,9.22
2023-01-09T03:54:33.424Z,9.20
2023-01-09T03:56:59.849Z,9.22
2023-01-09T03:59:26.411Z,9.23
2023-01-09T04:01:52.935Z,9.26
2023-01-09T04:04:19.389Z,9.27
2023-01-09T04:06:45.755Z,9.30
2023-01-09T04:09:12.281Z,9.25
2023-01-09T04:11:38.655Z,9.21
2023-01-09T04:14:05.068Z,9.16
2023-01-09T04:16:31.489Z,9.12
2023-01-09T04:18:57.971Z,9.16
2023-01-09T04:21:24.346Z,9.15
2023-01-09T04:23:50.809Z,9.20
2023-01-09T04:26:17.280Z,9.18
2023-01-09T04:28:43.628Z,9.19
2023-01-09T04:31:10.102Z,9.26
2023-01-09T04:33:36.752Z,9.17
2023-01-09T04:36:03.515Z,9.07
2023-01-09T04:38:29.970Z,9.15
2023-01-09T04:40:56.340Z,9.22
2023-01-09T04:43:22.836Z,9.24
2023-01-09T04:45:49.220Z,9.19
2023-01-09T04:48:15.977Z,9.17
2023-01-09T04:50:42.343Z,9.05
2023-01-09T04:53:08.932Z,9.04
2023-01-09T04:55:35.409Z,9.12
2023-01-09T04:58:01.774Z,9.18
2023-01-09T05:00:28.276Z,9.13
2023-01-09T05:02:54.964Z,9.22
2023-01-09T05:05:21.389Z,9.29
2023-01-09T05:07:47.751Z,9.28
2023-01-09T05:10:14.237Z,9.30
2023-01-09T05:12:40.736Z,9.36
2023-01-09T05:15:08.322Z,9.38
2023-01-09T05:17:34.976Z,9.38
2023-01-09T05:20:01.512Z,9.39
2023-01-09T05:22:28.107Z,9.41
2023-01-09T05:24:54.670Z,9.34
2023-01-09T05:27:23.417Z,9.29
2023-01-09T05:29:49.758Z,9.18
2023-01-09T05:32:16.152Z,9.09
2023-01-09T05:34:42.546Z,9.05
2023-01-09T05:37:08.908Z,9.09
2023-01-09T05:39:35.415Z,9.08
2023-01-09T05:42:01.927Z,9.03
2023-01-09T05:44:28.355Z,9.01
2023-01-09T05:46:54.792Z,8.99
2023-01-09T05:49:21.138Z,9.08
2023-01-09T05:51:47.719Z,9.06
2023-01-09T05:54:14.059Z,9.07
2023-01-09T05:56:40.574Z,9.11
2023-01-09T05:59:07.029Z,9.10
2023-01-09T06:01:33.459Z,9.16
2023-01-09T06:04:03.116Z,9.17
2023-01-09T06:06:29.670Z,9.10
2023-01-09T06:08:56.110Z,9.07
2023-01-09T06:11:22.628Z,9.13
2023-01-09T06:13:48.986Z,9.21
2023-01-09T06:16:15.862Z,9.20
2023-01-09T06:18:42.224Z,9.13
2023-01-09T06:21:08.594Z,9.15
2023-01-09T06:23:35.135Z,9.10
2023-01-09T06:26:01.610Z,8.99
2023-01-09T06:28:28.100Z,9.09
2023-01-09T06:30:54.520Z,9.13
2023-01-09T06:33:20.960Z,9.18
2023-01-09T06:35:47.464Z,9.24
2023-01-09T06:38:13.918Z,9.25
2023-01-09T06:40:40.358Z,9.15
2023-01-09T06:43:06.783Z,9.14
2023-01-09T06:45:33.537Z,9.16
2023-01-09T06:47:59.923Z,9.21
2023-01-09T06:50:26.275Z,9.28
2023-01-09T06:52:52.928Z,9.37
2023-01-09T06:55:19.398Z,9.46
2023-01-09T06:57:45.769Z,9.48
2023-01-09T07:00:12.647Z,9.34
2023-01-09T07:02:39.078Z,9.35
2023-01-09T07:05:07.885Z,9.38
2023-01-09T07:07:34.583Z,9.45
2023-01-09T07:10:00.968Z,9.52
2023-01-09T07:12:28.294Z,9.56
2023-01-09T07:14:57.428Z,9.57
2023-01-09T07:17:24.075Z,9.52
2023-01-09T07:19:50.454Z,9.47
2023-01-09T07:22:17.512Z,9.43
2023-01-09T07:24:44.495Z,9.39
2023-01-09T07:27:11.712Z,9.36
2023-01-09T07:29:38.138Z,9.28
2023-01-09T07:32:05.111Z,9.22
2023-01-09T07:34:31.527Z,9.07
2023-01-09T07:36:57.974Z,8.97
2023-01-09T07:39:24.352Z,8.91
2023-01-09T07:41:50.855Z,8.89
2023-01-09T07:44:17.224Z,8.80
2023-01-09T07:46:43.696Z,8.73
2023-01-09T07:49:10.264Z,8.67
2023-01-09T07:51:39.132Z,8.64
2023-01-09T07:54:05.629Z,8.61
2023-01-09T07:56:31.969Z,8.63
2023-01-09T07:58:58.429Z,8.71
2023-01-09T08:01:25.036Z,8.64
2023-01-09T08:03:51.430Z,8.58
2023-01-09T08:06:17.805Z,8.51
2023-01-09T08:08:44.373Z,8.49
2023-01-09T08:11:10.938Z,8.51
2023-01-09T08:13:37.313Z,8.47
2023-01-09T08:16:03.994Z,8.39
2023-01-09T08:18:30.520Z,8.44
2023-01-09T08:20:56.899Z,8.43
2023-01-09T08:23:23.333Z,8.42
2023-01-09T08:25:49.895Z,8.49
2023-01-09T08:28:17.090Z,8.55
2023-01-09T08:30:43.597Z,8.56
2023-01-09T08:33:10.081Z,8.53
2023-01-09T08:35:37.097Z,8.45
2023-01-09T08:38:03.944Z,8.41
2023-01-09T08:40:30.499Z,8.40
2023-01-09T08:43:15.538Z,8.45
2023-01-09T08:46:00.311Z,8.44
2023-01-09T08:48:27.025Z,8.42
2023-01-09T08:50:54.229Z,8.49
2023-01-09T08:53:20.810Z,8.46
2023-01-09T08:55:47.247Z,8.43
2023-01-09T08:58:13.729Z,8.43
2023-01-09T09:00:40.239Z,8.41
2023-01-09T09:03:06.636Z,8.29
2023-01-09T09:05:33.088Z,8.19
2023-01-09T09:07:59.946Z,8.20
2023-01-09T09:10:29.458Z,8.20
2023-01-09T09:12:57.793Z,8.27
2023-01-09T09:15:26.252Z,8.22
2023-01-09T09:17:58.503Z,8.26
2023-01-09T09:20:28.045Z,8.25
2023-01-09T09:22:54.992Z,8.20
2023-01-09T09:25:21.876Z,8.24
2023-01-09T09:27:49.025Z,8.28
2023-01-09T09:30:17.615Z,8.35
2023-01-09T09:32:44.451Z,8.43
2023-01-09T09:35:11.884Z,8.44
2023-01-09T09:37:38.963Z,8.55
2023-01-09T09:40:17.985Z,8.62
2023-01-09T09:43:30.433Z,8.65
2023-01-09T09:46:08.464Z,8.51
2023-01-09T09:48:45.054Z,8.52
2023-01-09T09:51:25.762Z,8.57
2023-01-09T09:54:03.962Z,8.51
2023-01-09T09:56:35.280Z,8.57
2023-01-09T09:59:07.255Z,8.56
2023-01-09T10:01:40.170Z,8.53
2023-01-09T10:04:12.238Z,8.52
2023-01-09T10:06:48.382Z,8.46
2023-01-09T10:09:20.560Z,8.43
2023-01-09T10:11:55.889Z,8.42
2023-01-09T10:14:24.687Z,8.49
2023-01-09T10:17:19.009Z,8.34
2023-01-09T10:20:26.054Z,8.31
2023-01-09T10:23:27.510Z,8.31
2023-01-09T10:26:01.096Z,8.12
2023-01-09T10:29:05.081Z,7.97
2023-01-09T10:31:50.374Z,7.93
2023-01-09T10:34:39.116Z,7.85
2023-01-09T10:37:14.114Z,7.83
2023-01-09T10:39:57.741Z,7.80
2023-01-09T10:42:33.422Z,7.81
2023-01-09T10:45:07.929Z,7.80
2023-01-09T10:47:37.193Z,7.78
2023-01-09T10:50:28.084Z,7.76
2023-01-09T10:52:56.174Z,7.82
2023-01-09T10:55:44.586Z,7.88
2023-01-09T10:58:18.826Z,7.83
2023-01-09T11:00:47.539Z,7.86
2023-01-09T11:03:16.475Z,8.00
2023-01-09T11:05:44.413Z,8.15
2023-01-09T11:08:14.107Z,8.26
2023-01-09T11:10:55.606Z,8.33
2023-01-09T11:13:26.809Z,8.39
2023-01-09T11:16:05.737Z,8.18
2023-01-09T11:19:02.921Z,7.98
2023-01-09T11:21:41.723Z,7.99
2023-01-09T11:24:23.937Z,8.22
2023-01-09T11:27:12.689Z,8.50
2023-01-09T11:29:40.201Z,8.61
2023-01-09T11:32:20.480Z,8.76
2023-01-09T11:34:47.152Z,8.94
2023-01-09T11:37:23.439Z,9.07
2023-01-09T11:39:51.218Z,9.39
2023-01-09T11:42:44.432Z,10.02
2023-01-09T11:45:25.011Z,10.66
2023-01-09T11:47:51.442Z,10.68
2023-01-09T11:50:22.654Z,10.52
2023-01-09T11:53:16.488Z,10.58
2023-01-09T11:55:44.473Z,11.62
2023-01-09T11:58:16.615Z,12.16
2023-01-09T12:00:58.208Z,11.99
2023-01-09T12:03:50.190Z,12.08
2023-01-09T12:06:26.256Z,11.78
2023-01-09T12:09:03.073Z,11.46
2023-01-09T12:11:53.460Z,11.01
2023-01-09T12:14:32.932Z,10.59
2023-01-09T12:17:20.097Z,10.26
2023-01-09T12:20:04.575Z,9.90
2023-01-09T12:22:49.278Z,9.55
2023-01-09T12:25:29.508Z,9.24
2023-01-09T12:28:14.554Z,9.03
2023-01-09T12:31:10.537Z,8.90
2023-01-09T12:33:57.385Z,8.91
2023-01-09T12:37:05.409Z,8.88
2023-01-09T12:39:31.870Z,8.86
2023-01-09T12:42:11.626Z,8.90
2023-01-09T12:44:53.079Z,9.01
2023-01-09T12:47:55.429Z,8.98
2023-01-09T12:50:57.401Z,8.96
2023-01-09T12:53:27.243Z,9.00
2023-01-09T12:56:14.874Z,8.91
2023-01-09T12:58:44.699Z,8.85
2023-01-09T13:01:18.248Z,8.83
2023-01-09T13:04:13.987Z,8.75
2023-01-09T13:06:45.632Z,8.74
2023-01-09T13:09:47.487Z,8.71
2023-01-09T13:12:18.169Z,8.68
2023-01-09T13:14:51.410Z,8.78
2023-01-09T13:17:23.742Z,8.90
2023-01-09T13:19:50.286Z,9.09
2023-01-09T13:22:18.072Z,9.17
2023-01-09T13:25:06.283Z,9.21
2023-01-09T13:27:39.270Z,9.34
2023-01-09T13:30:29.240Z,9.44
2023-01-09T13:33:13.952Z,9.48
2023-01-09T13:35:55.844Z,9.45
2023-01-09T13:38:24.910Z,9.45
2023-01-09T13:41:30.066Z,9.42
2023-01-09T13:44:19.218Z,9.23
2023-01-09T13:46:48.561Z,9.18
2023-01-09T13:49:40.974Z,9.11
2023-01-09T13:52:36.780Z,9.11
2023-01-09T13:55:24.277Z,9.18
2023-01-09T13:58:06.007Z,9.22
2023-01-09T14:00:35.834Z,9.20
2023-01-09T14:03:08.208Z,9.15
2023-01-09T14:05:34.614Z,9.09
2023-01-09T14:08:03.799Z,9.09
2023-01-09T14:10:51.964Z,9.08
2023-01-09T14:13:24.306Z,9.16
2023-01-09T14:15:52.394Z,9.21
2023-01-09T14:18:23.514Z,9.19
2023-01-09T14:20:57.771Z,9.12
2023-01-09T14:23:49.829Z,9.07
2023-01-09T14:26:23.560Z,8.99
2023-01-09T14:28:50.585Z,8.97
2023-01-09T14:31:31.976Z,8.97
2023-01-09T14:34:37.172Z,8.88
2023-01-09T14:37:04.517Z,8.89
2023-01-09T14:39:32.636Z,8.85
2023-01-09T14:42:07.777Z,8.77
2023-01-09T14:44:48.487Z,8.73
2023-01-09T14:47:21.510Z,8.70
2023-01-09T14:49:59.569Z,8.64
2023-01-09T14:52:35.184Z,8.61
2023-01-09T14:55:04.239Z,8.55
2023-01-09T14:57:34.065Z,8.55
2023-01-09T15:00:13.462Z,8.56
2023-01-09T15:02:41.321Z,8.56
2023-01-09T15:05:11.296Z,8.62
2023-01-09T15:07:44.504Z,8.68
2023-01-09T15:10:21.285Z,8.72
2023-01-09T15:12:50.275Z,8.73
2023-01-09T15:15:18.343Z,8.76
2023-01-09T15:18:06.597Z,8.87
2023-01-09T15:20:34.269Z,8.94
2023-01-09T15:23:04.076Z,8.95
2023-01-09T15:25:40.630Z,9.02
2023-01-09T15:28:25.086Z,9.09
2023-01-09T15:31:01.538Z,9.15
2023-01-09T15:33:28.356Z,9.21
2023-01-09T15:36:00.255Z,9.25
2023-01-09T15:38:28.419Z,9.32
2023-01-09T15:41:06.655Z,9.34
2023-01-09T15:43:34.823Z,9.37
2023-01-09T15:46:01.526Z,9.39
2023-01-09T15:48:33.942Z,9.40
2023-01-09T15:51:18.267Z,9.42
2023-01-09T15:53:47.032Z,9.43
2023-01-09T15:56:26.230Z,9.45
2023-01-09T15:58:54.537Z,9.47
2023-01-09T16:01:27.628Z,9.47
2023-01-09T16:04:04.949Z,9.48
2023-01-09T16:06:34.885Z,9.49
2023-01-09T16:09:01.949Z,9.50
2023-01-09T16:11:30.954Z,9.51
2023-01-09T16:14:09.956Z,9.52
2023-01-09T16:16:38.479Z,9.45
2023-01-09T16:19:05.000Z,9.42
2023-01-09T16:21:41.576Z,9.43
2023-01-09T16:24:13.898Z,9.45
2023-01-09T16:26:40.490Z,9.46
2023-01-09T16:29:27.317Z,9.47
2023-01-09T16:32:05.453Z,9.46
2023-01-09T16:34:36.809Z,9.45
2023-01-09T16:37:05.633Z,9.43
2023-01-09T16:39:32.238Z,9.43
2023-01-09T16:42:17.134Z,9.44
2023-01-09T16:44:43.575Z,9.44
2023-01-09T16:47:11.995Z,9.42
2023-01-09T16:49:38.650Z,9.41
2023-01-09T16:52:15.201Z,9.41
2023-01-09T16:54:43.620Z,9.43
2023-01-09T16:57:15.648Z,9.43
2023-01-09T16:59:42.200Z,9.40
2023-01-09T17:02:18.404Z,9.40
2023-01-09T17:04:44.928Z,9.40
2023-01-09T17:07:15.684Z,9.37
2023-01-09T17:09:43.145Z,9.36
2023-01-09T17:12:17.673Z,9.36
2023-01-09T17:14:44.165Z,9.36
2023-01-09T17:17:12.329Z,9.36
2023-01-09T17:19:38.772Z,9.37
2023-01-09T17:22:05.398Z,9.38
2023-01-09T17:24:50.871Z,9.40
2023-01-09T17:27:41.071Z,9.41
2023-01-09T17:30:18.396Z,9.39
2023-01-09T17:32:45.676Z,9.36
2023-01-09T17:35:13.328Z,9.28
2023-01-09T17:37:39.825Z,9.26
2023-01-09T17:40:19.167Z,9.28
2023-01-09T17:42:45.664Z,9.22
2023-01-09T17:45:12.163Z,9.17
2023-01-09T17:47:38.808Z,9.14
2023-01-09T17:50:05.911Z,9.14
2023-01-09T17:52:33.076Z,9.16
2023-01-09T17:55:05.138Z,9.19
2023-01-09T17:57:32.722Z,9.21
2023-01-09T17:59:59.155Z,9.23
2023-01-09T18:02:25.613Z,9.23
2023-01-09T18:04:52.070Z,9.25
2023-01-09T18:07:18.527Z,9.23
2023-01-09T18:09:45.146Z,9.14
2023-01-09T18:12:11.615Z,9.14
2023-01-09T18:14:38.869Z,9.18
2023-01-09T18:17:08.441Z,9.21
2023-01-09T18:19:34.902Z,9.24
2023-01-09T18:22:01.304Z,9.26
2023-01-09T18:24:27.694Z,9.28
2023-01-09T18:26:54.369Z,9.29
2023-01-09T18:29:21.369Z,9.27
2023-01-09T18:31:48.087Z,9.24
2023-01-09T18:34:14.632Z,9.19
2023-01-09T18:36:41.263Z,9.15
2023-01-09T18:39:08.698Z,9.14
2023-01-09T18:41:35.085Z,9.18
2023-01-09T18:44:02.210Z,9.16
2023-01-09T18:46:32.193Z,9.10
2023-01-09T18:49:01.429Z,9.10
2023-01-09T18:51:28.660Z,9.10
2023-01-09T18:53:56.090Z,9.07
2023-01-09T18:56:24.678Z,9.04
2023-01-09T18:58:55.992Z,9.00
2023-01-09T19:01:22.669Z,9.00
2023-01-09T19:03:49.578Z,9.02
2023-01-09T19:06:16.002Z,9.05
2023-01-09T19:08:42.409Z,9.10
2023-01-09T19:11:08.769Z,9.12
2023-01-09T19:13:36.823Z,9.11
2023-01-09T19:16:04.727Z,9.09
2023-01-09T19:18:36.553Z,9.08
2023-01-09T19:21:10.761Z,9.06
2023-01-09T19:23:37.308Z,9.06
2023-01-09T19:26:06.081Z,9.03
2023-01-09T19:28:32.520Z,9.04
2023-01-09T19:30:58.968Z,9.00
2023-01-09T19:33:25.504Z,8.92
2023-01-09T19:35:52.926Z,8.87
2023-01-09T19:38:23.324Z,8.90
2023-01-09T19:40:50.226Z,8.92
2023-01-09T19:43:25.602Z,8.92
2023-01-09T19:45:53.884Z,8.92
2023-01-09T19:48:21.615Z,8.96
2023-01-09T19:50:48.367Z,8.98
2023-01-09T19:53:15.188Z,9.04
2023-01-09T19:55:41.670Z,9.03
2023-01-09T19:58:08.182Z,9.03
2023-01-09T20:00:35.213Z,8.97
2023-01-09T20:03:02.137Z,8.96
2023-01-09T20:05:28.510Z,9.01
2023-01-09T20:07:55.339Z,9.07
2023-01-09T20:10:21.707Z,9.12
2023-01-09T20:12:48.214Z,9.13
2023-01-09T20:15:14.886Z,9.12
2023-01-09T20:17:42.107Z,9.13
2023-01-09T20:20:09.569Z,9.12
2023-01-09T20:22:35.982Z,9.15
2023-01-09T20:25:02.762Z,9.10
2023-01-09T20:27:29.180Z,9.01
2023-01-09T20:29:55.565Z,8.87
2023-01-09T20:32:22.073Z,8.88
2023-01-09T20:34:48.732Z,8.86
2023-01-09T20:37:15.124Z,8.84
2023-01-09T20:39:41.490Z,8.80
2023-01-09T20:42:08.496Z,8.78
2023-01-09T20:44:34.942Z,8.80
2023-01-09T20:47:01.325Z,8.80
2023-01-09T20:49:28.588Z,8.82
2023-01-09T20:51:55.042Z,8.77
2023-01-09T20:54:21.792Z,8.75
2023-01-09T20:56:48.187Z,8.80
2023-01-09T20:59:17.304Z,8.76
2023-01-09T21:01:43.883Z,8.69
2023-01-09T21:04:10.313Z,8.64
2023-01-09T21:06:37.516Z,8.63
2023-01-09T21:09:04.875Z,8.67
2023-01-09T21:11:33.497Z,8.69
2023-01-09T21:14:00.098Z,8.67
2023-01-09T21:16:27.162Z,8.73
2023-01-09T21:18:54.746Z,8.68
2023-01-09T21:21:27.259Z,8.60
2023-01-09T21:23:56.542Z,8.60
2023-01-09T21:26:27.274Z,8.55
2023-01-09T21:28:55.845Z,8.51
2023-01-09T21:31:25.552Z,8.54
2023-01-09T21:33:54.354Z,8.50
2023-01-09T21:36:21.567Z,8.48
2023-01-09T21:38:48.436Z,8.55
2023-01-09T21:41:36.628Z,8.58
2023-01-09T21:44:21.473Z,8.64
2023-01-09T21:46:57.489Z,8.65
2023-01-09T21:49:26.477Z,8.59
2023-01-09T21:51:54.014Z,8.49
2023-01-09T21:54:24.209Z,8.48
2023-01-09T21:56:51.495Z,8.51
2023-01-09T21:59:18.153Z,8.48
2023-01-09T22:01:45.250Z,8.46
2023-01-09T22:04:14.357Z,8.47
2023-01-09T22:06:40.743Z,8.57
2023-01-09T22:09:09.794Z,8.66
2023-01-09T22:11:37.570Z,8.70
2023-01-09T22:14:04.213Z,8.71
2023-01-09T22:16:30.796Z,8.70
2023-01-09T22:18:57.773Z,8.69
2023-01-09T22:21:25.579Z,8.66
2023-01-09T22:23:52.213Z,8.63
2023-01-09T22:26:18.952Z,8.62
2023-01-09T22:28:46.367Z,8.66
2023-01-09T22:31:20.416Z,8.64
2023-01-09T22:33:51.757Z,8.69
2023-01-09T22:36:18.925Z,8.60
2023-01-09T22:38:45.672Z,8.56
2023-01-09T22:41:12.530Z,8.59
2023-01-09T22:43:38.968Z,8.68
2023-01-09T22:46:09.721Z,8.73
2023-01-09T22:48:37.711Z,8.56
2023-01-09T22:51:16.296Z,8.53
2023-01-09T22:53:43.312Z,8.58
2023-01-09T22:56:12.547Z,8.62
2023-01-09T22:58:39.407Z,8.62
2023-01-09T23:01:06.220Z,8.66
2023-01-09T23:03:32.943Z,8.67
2023-01-09T23:06:04.752Z,8.65
2023-01-09T23:08:32.067Z,8.64
2023-01-09T23:10:58.896Z,8.65
2023-01-09T23:13:25.449Z,8.63
2023-01-09T23:15:52.076Z,8.65
2023-01-09T23:18:18.792Z,8.61
2023-01-09T23:20:57.189Z,8.60
2023-01-09T23:23:24.836Z,8.63
2023-01-09T23:25:53.343Z,8.62
2023-01-09T23:28:20.314Z,8.61
2023-01-09T23:30:47.364Z,8.65
2023-01-09T23:33:16.508Z,8.70
2023-01-09T23:35:44.019Z,8.67
2023-01-09T23:38:13.992Z,8.58
2023-01-09T23:40:41.587Z,8.51
2023-01-09T23:43:11.198Z,8.42
2023-01-09T23:45:43.158Z,8.44
2023-01-09T23:48:12.658Z,8.45
2023-01-09T23:50:42.149Z,8.34
2023-01-09T23:53:09.474Z,8.28
2023-01-09T23:55:36.731Z,8.26
2023-01-09T23:58:03.131Z,8.29
